MMMA/MAM METAR and TAF weather

Enter ICAO airport designator
Station Type Date Time Source
MMMA METAR 2021/02/27 20:40 UTC NOAA

MMMA 272040Z 16013KT 8SM BKN010 OVC015 27/23 A2980 RMK SLP092 57019 962 8/8//


Station Type Date Time Source
MMMA Decoded METAR 2021/02/27 20:40 UTC NOAA

Matamoros International , Mexico (MMMA) 25-46N 097-32W
Feb 27, 2021 - 03:40 PM EST / 2021.02.27 2040 UTC
Wind: from the SSE (160 degrees) at 15 MPH (13 KT):0
Visibility: 8 mile(s):0
Sky conditions: overcast
Temperature: 80 F (27 C)
Dew Point: 73 F (23 C)
Relative Humidity: 78%
Pressure (altimeter): 29.8 in. Hg (1009 hPa)
Pressure tendency: 0.06 inches (1.9 hPa) lower than three hours ago
ob: MMMA 272040Z 16013KT 8SM BKN010 OVC015 27/23 A2980 RMK SLP092 57019 962 8/8//
cycle: 20

Station Type Date Time Source
MMMA TAF 2021/02/27 18:24 UTC NOAA

TAF MMMA 271717Z 2718/2818 16025G35KT P6SM BLDU SCT020
TEMPO 2720/2724 3SM BLDU
FM280200 17015G25KT P6SM BKN020
FM281200 18012KT 4SM HZ OVC005
FM281600 16015KT P6SM OVC010

Example: see airport list